createdAt,value
2023-04-09T13:46:08.116Z,3.92
2023-04-09T13:48:39.489Z,3.28
2023-04-09T13:51:10.868Z,3.95
2023-04-09T13:53:42.933Z,3.35
2023-04-09T14:00:14.162Z,3.53
2023-04-09T14:02:47.183Z,4.53
2023-04-09T14:05:19.226Z,3.67
2023-04-09T14:07:51.865Z,2.90
2023-04-09T14:10:24.350Z,3.10
2023-04-09T14:12:56.556Z,2.70
2023-04-09T14:15:28.660Z,2.28
2023-04-09T14:18:01.048Z,2.20
2023-04-09T14:20:33.149Z,2.58
2023-04-09T14:23:05.232Z,2.08
2023-04-09T14:25:38.617Z,3.05
2023-04-09T14:28:10.754Z,2.78
2023-04-09T14:30:42.022Z,2.55
2023-04-09T14:33:15.192Z,2.88
2023-04-09T14:35:47.693Z,3.10
2023-04-09T14:38:20.942Z,2.67
2023-04-09T14:40:53.915Z,3.00
2023-04-09T14:43:26.735Z,2.80
2023-04-09T14:45:58.200Z,3.10
2023-04-09T14:48:29.595Z,3.78
2023-04-09T14:51:01.080Z,3.03
2023-04-09T14:53:33.048Z,3.35
2023-04-09T14:56:04.970Z,3.08
2023-04-09T14:58:37.660Z,3.83
2023-04-09T15:01:10.244Z,2.60
2023-04-09T15:03:43.648Z,2.50
2023-04-09T15:06:15.652Z,3.72
2023-04-09T15:08:47.870Z,2.88
2023-04-09T15:11:23.955Z,2.40
2023-04-09T15:13:56.108Z,2.83
2023-04-09T15:16:29.492Z,2.75
2023-04-09T15:19:01.243Z,2.90
2023-04-09T15:21:35.368Z,3.08
2023-04-09T15:24:07.621Z,3.42
2023-04-09T15:26:38.948Z,3.20
2023-04-09T15:29:11.868Z,3.50
2023-04-09T15:31:43.441Z,3.28
2023-04-09T15:34:17.176Z,3.08
2023-04-09T15:36:49.209Z,2.97
2023-04-09T15:39:21.570Z,3.00
2023-04-09T15:41:53.354Z,3.22
2023-04-09T15:44:25.694Z,2.70
2023-04-09T15:46:57.590Z,2.60
2023-04-09T15:49:29.356Z,2.90
2023-04-09T15:52:00.873Z,3.72
2023-04-09T15:54:32.662Z,3.67
2023-04-09T15:57:05.302Z,3.50
2023-04-09T15:59:37.095Z,3.45
2023-04-09T16:02:09.250Z,3.72
2023-04-09T16:04:41.063Z,9.13
2023-04-09T16:07:12.629Z,4.93
2023-04-09T16:09:44.874Z,4.97
2023-04-09T16:12:16.493Z,4.05
2023-04-09T16:14:48.289Z,4.18
2023-04-09T16:17:20.316Z,5.53
2023-04-09T16:19:52.110Z,4.90
2023-04-09T16:22:23.988Z,7.05
2023-04-09T16:24:56.199Z,4.53
2023-04-09T16:27:27.544Z,4.85
2023-04-09T16:29:59.526Z,4.70
2023-04-09T16:32:30.985Z,4.93
2023-04-09T16:35:02.939Z,3.95
2023-04-09T16:37:36.167Z,4.32
2023-04-09T16:40:09.364Z,4.18
2023-04-09T16:42:40.962Z,4.65
2023-04-09T16:45:13.146Z,4.35
2023-04-09T16:47:45.745Z,3.30
2023-04-09T16:50:18.566Z,3.70
2023-04-09T16:52:50.741Z,4.28
2023-04-09T16:55:23.150Z,3.50
2023-04-09T16:57:57.529Z,4.30
2023-04-09T17:00:30.438Z,3.90
2023-04-09T17:03:03.157Z,3.47
2023-04-09T17:05:35.977Z,3.75
2023-04-09T17:08:08.466Z,3.63
2023-04-09T17:10:40.571Z,3.03
2023-04-09T17:13:13.642Z,3.30
2023-04-09T17:15:44.817Z,3.30
2023-04-09T17:18:17.313Z,4.43
2023-04-09T17:20:49.161Z,2.80
2023-04-09T17:23:21.287Z,4.00
2023-04-09T17:25:54.312Z,3.10
2023-04-09T17:28:26.693Z,4.07
2023-04-09T17:30:59.144Z,3.65
2023-04-09T17:33:31.382Z,3.97
2023-04-09T17:36:03.030Z,3.65
2023-04-09T17:38:35.603Z,3.45
2023-04-09T17:41:07.808Z,3.08
2023-04-09T17:43:40.159Z,3.58
2023-04-09T17:46:13.153Z,2.67
2023-04-09T17:48:45.560Z,3.80
2023-04-09T17:51:21.031Z,3.88
2023-04-09T17:53:54.863Z,3.85
2023-04-09T17:56:26.343Z,3.70
2023-04-09T17:58:58.540Z,3.45
2023-04-09T18:01:30.622Z,3.17
2023-04-09T18:04:03.301Z,3.83
2023-04-09T18:06:35.528Z,3.63
2023-04-09T18:09:07.563Z,3.25
2023-04-09T18:11:38.765Z,3.10
2023-04-09T18:14:10.283Z,3.42
2023-04-09T18:16:42.677Z,2.97
2023-04-09T18:19:14.920Z,2.80
2023-04-09T18:21:46.074Z,3.05
2023-04-09T18:24:18.488Z,2.45
2023-04-09T18:26:51.139Z,2.08
2023-04-09T18:29:23.718Z,2.20
2023-04-09T18:31:57.377Z,2.25
2023-04-09T18:34:30.717Z,2.10
2023-04-09T18:37:02.946Z,2.50
2023-04-09T18:39:37.464Z,2.67
2023-04-09T18:42:08.970Z,2.35
2023-04-09T18:44:41.585Z,1.85
2023-04-09T18:47:14.134Z,2.08
2023-04-09T18:49:46.245Z,1.85
2023-04-09T18:52:18.266Z,1.60
2023-04-09T18:54:50.326Z,1.92
2023-04-09T18:57:21.718Z,1.95
2023-04-09T18:59:54.115Z,2.05
2023-04-09T19:02:24.913Z,1.95
2023-04-09T19:04:57.020Z,1.80
2023-04-09T19:07:29.389Z,2.17
2023-04-09T19:10:01.000Z,1.73
2023-04-09T19:12:32.697Z,1.48
2023-04-09T19:15:05.881Z,1.90
2023-04-09T19:17:37.532Z,2.08
2023-04-09T19:20:10.271Z,1.95
2023-04-09T19:22:42.580Z,2.08
2023-04-09T19:25:14.552Z,1.70
2023-04-09T19:27:47.156Z,1.83
2023-04-09T19:30:17.988Z,2.00
2023-04-09T19:32:49.348Z,1.88
2023-04-09T19:35:20.063Z,1.73
2023-04-09T19:37:50.797Z,2.00
2023-04-09T19:40:22.286Z,2.00
2023-04-09T19:42:53.796Z,1.60
2023-04-09T19:45:24.951Z,1.70
2023-04-09T19:47:56.707Z,1.58
2023-04-09T19:50:28.454Z,1.58
2023-04-09T19:52:59.208Z,1.60
2023-04-09T19:55:30.333Z,1.80
2023-04-09T19:58:01.508Z,1.90
2023-04-09T20:00:33.696Z,1.83
2023-04-09T20:03:06.961Z,1.70
2023-04-09T20:05:38.669Z,1.98
2023-04-09T20:08:14.334Z,1.50
2023-04-09T20:10:48.402Z,1.73
2023-04-09T20:13:19.233Z,1.50
2023-04-09T20:15:51.372Z,1.88
2023-04-09T20:18:23.561Z,1.70
2023-04-09T20:20:55.066Z,1.80
2023-04-09T20:23:26.668Z,1.80
2023-04-09T20:25:57.381Z,1.85
2023-04-09T20:28:29.002Z,1.20
2023-04-09T20:31:00.815Z,1.63
2023-04-09T20:33:31.864Z,1.38
2023-04-09T20:36:02.873Z,1.40
2023-04-09T20:38:33.521Z,1.63
2023-04-09T20:41:05.497Z,1.60
2023-04-09T20:43:36.554Z,1.98
2023-04-09T20:46:07.832Z,1.67
2023-04-09T20:48:38.506Z,1.67
2023-04-09T20:51:13.798Z,1.83
2023-04-09T20:53:46.752Z,1.52
2023-04-09T20:56:18.633Z,1.92
2023-04-09T20:58:49.794Z,2.10
2023-04-09T21:01:22.988Z,2.30
2023-04-09T21:03:53.654Z,2.00
2023-04-09T21:06:25.277Z,2.97
2023-04-09T21:08:58.593Z,2.60
2023-04-09T21:11:32.317Z,2.80
2023-04-09T21:14:04.323Z,2.50
2023-04-09T21:16:36.558Z,2.40
2023-04-09T21:19:08.466Z,3.13
2023-04-09T21:21:40.585Z,2.85
2023-04-09T21:24:12.555Z,3.50
2023-04-09T21:26:49.918Z,3.35
2023-04-09T21:29:22.983Z,2.80
2023-04-09T21:31:54.648Z,3.17
2023-04-09T21:34:26.718Z,2.65
2023-04-09T21:36:57.653Z,2.80
2023-04-09T21:39:30.107Z,2.90
2023-04-09T21:42:00.770Z,2.60
2023-04-09T21:44:32.074Z,2.70
2023-04-09T21:47:03.046Z,2.60
2023-04-09T21:49:35.350Z,3.05
2023-04-09T21:52:07.702Z,3.70
2023-04-09T21:54:38.299Z,3.05
2023-04-09T21:57:09.199Z,3.20
2023-04-09T21:59:42.231Z,2.65
2023-04-09T22:02:14.135Z,2.60
2023-04-09T22:04:45.733Z,2.50
2023-04-09T22:07:17.073Z,2.28
2023-04-09T22:09:48.713Z,2.60
2023-04-09T22:12:20.079Z,3.03
2023-04-09T22:14:51.373Z,2.30
2023-04-09T22:17:22.470Z,2.75
2023-04-09T22:19:53.213Z,2.20
2023-04-09T22:22:24.503Z,2.75
2023-04-09T22:24:56.089Z,2.63
2023-04-09T22:27:28.024Z,2.50
2023-04-09T22:29:59.357Z,2.67
2023-04-09T22:35:33.151Z,2.78
2023-04-09T22:44:22.380Z,2.88
2023-04-09T22:47:19.651Z,3.10
2023-04-09T22:50:18.144Z,2.80
2023-04-09T22:55:44.437Z,3.70
2023-04-09T22:58:17.019Z,3.00
2023-04-09T23:00:53.245Z,3.47
2023-04-09T23:03:25.072Z,3.17
2023-04-09T23:11:50.104Z,2.90
2023-04-09T23:23:22.616Z,2.80
2023-04-09T23:25:53.924Z,2.92
2023-04-09T23:28:25.691Z,3.00
2023-04-09T23:30:58.025Z,3.60
2023-04-09T23:36:07.468Z,3.33
2023-04-09T23:38:44.828Z,3.10
2023-04-09T23:41:17.176Z,3.08
2023-04-09T23:44:12.939Z,3.95
2023-04-09T23:46:48.593Z,3.30
2023-04-09T23:49:21.692Z,3.58
2023-04-09T23:51:54.177Z,3.20
2023-04-09T23:54:26.241Z,3.38
